Time;durP1;ratioP1;P1;durP2;ratioP2;P2;SDS_P1;SDS_P2;PMS_P1;PMS_P2;Temp;Humidity;BMP_temperature;BMP_pressure;BME280_temperature;BME280_humidity;BME280_pressure;Samples;Min_cycle;Max_cycle;Signal;HPM_P1;HPM_P2
2022/09/20 00:00:44;;;;;;;8.80;1.30;;;11.40;99.90;;;;;;5123406;27;20483;-89
2022/09/20 00:03:11;;;;;;;7.78;1.42;;;11.30;99.90;;;;;;5107249;27;20499;-89
2022/09/20 00:05:38;;;;;;;12.23;1.65;;;11.30;99.90;;;;;;5125843;27;20041;-89
2022/09/20 00:08:07;;;;;;;11.20;1.80;;;11.30;99.90;;;;;;5134036;27;20529;-89
2022/09/20 00:10:38;;;;;;;6.35;1.50;;;11.20;99.90;;;;;;5117056;27;20070;-89
2022/09/20 00:13:05;;;;;;;7.72;1.20;;;11.20;99.90;;;;;;5118114;27;20039;-89
2022/09/20 00:15:31;;;;;;;10.77;2.17;;;11.20;99.90;;;;;;5137591;27;20086;-89
2022/09/20 00:17:56;;;;;;;7.68;1.52;;;11.10;99.90;;;;;;5137696;27;20066;-89
2022/09/20 00:20:22;;;;;;;7.93;1.58;;;11.10;99.90;;;;;;5137554;27;20077;-89
2022/09/20 00:22:48;;;;;;;8.10;1.55;;;11.10;99.90;;;;;;5120479;27;20429;-89
2022/09/20 00:25:18;;;;;;;11.23;1.58;;;11.10;99.90;;;;;;5137865;27;20436;-89
2022/09/20 00:27:44;;;;;;;11.48;2.38;;;11.00;99.90;;;;;;5137017;27;20046;-89
2022/09/20 00:30:11;;;;;;;12.23;1.60;;;11.10;99.90;;;;;;5137337;27;20512;-89
2022/09/20 00:32:38;;;;;;;7.88;1.23;;;11.00;99.90;;;;;;5137344;27;20514;-89
2022/09/20 00:35:07;;;;;;;5.90;1.10;;;11.00;99.90;;;;;;5120146;27;20182;-89
2022/09/20 00:37:38;;;;;;;9.60;1.48;;;10.90;99.90;;;;;;5137164;27;20384;-89
2022/09/20 00:40:06;;;;;;;10.80;1.60;;;10.90;99.90;;;;;;5120149;27;20042;-89
2022/09/20 00:42:32;;;;;;;11.15;1.90;;;10.90;99.90;;;;;;5136441;27;20034;-89
2022/09/20 00:45:00;;;;;;;8.27;1.38;;;10.90;99.90;;;;;;5120320;27;20079;-89
2022/09/20 00:47:42;;;;;;;8.80;1.10;;;10.90;99.90;;;;;;5119824;27;20495;-89
2022/09/20 00:50:25;;;;;;;7.15;1.30;;;10.80;99.90;;;;;;5119865;27;20045;-89
2022/09/20 00:53:00;;;;;;;6.75;1.20;;;10.70;99.90;;;;;;5136896;27;20113;-89
2022/09/20 00:55:27;;;;;;;6.13;1.15;;;10.70;99.90;;;;;;5137387;27;20087;-89
2022/09/20 00:57:53;;;;;;;12.40;2.08;;;10.60;99.90;;;;;;5136753;27;20687;-90
2022/09/20 01:00:19;;;;;;;6.60;1.10;;;10.50;99.90;;;;;;5136621;27;20054;-89
2022/09/20 01:02:50;;;;;;;7.15;1.38;;;10.40;99.90;;;;;;5119546;27;20030;-89
2022/09/20 01:05:17;;;;;;;11.27;1.42;;;10.40;99.90;;;;;;5136392;27;20049;-90
2022/09/20 01:07:46;;;;;;;6.45;2.17;;;10.30;99.90;;;;;;5136668;27;20039;-89
2022/09/20 01:10:12;;;;;;;10.25;1.75;;;10.30;99.90;;;;;;5119465;27;20041;-90
2022/09/20 01:12:39;;;;;;;9.38;1.33;;;10.20;99.90;;;;;;5136121;27;20118;-89
2022/09/20 01:15:08;;;;;;;9.05;1.35;;;10.10;99.90;;;;;;5136966;27;20043;-88
2022/09/20 01:17:36;;;;;;;8.15;1.38;;;10.10;99.90;;;;;;5136376;27;20416;-89
2022/09/20 01:20:10;;;;;;;12.27;1.65;;;10.10;99.90;;;;;;5136400;27;20038;-89
2022/09/20 01:22:39;;;;;;;10.13;1.63;;;10.10;99.90;;;;;;5136294;27;20098;-89
2022/09/20 01:25:15;;;;;;;9.50;1.40;;;10.10;99.90;;;;;;5136094;27;20081;-89
2022/09/20 01:27:49;;;;;;;5.50;1.25;;;10.00;99.90;;;;;;5135723;27;20118;-89
2022/09/20 01:30:20;;;;;;;7.25;1.30;;;10.00;99.90;;;;;;5136064;27;20084;-89
2022/09/20 01:33:06;;;;;;;8.68;1.60;;;10.00;99.90;;;;;;5136014;27;20087;-89
2022/09/20 01:35:34;;;;;;;7.68;1.80;;;10.00;99.90;;;;;;5135945;27;20113;-89
2022/09/20 01:38:09;;;;;;;7.75;1.30;;;10.00;99.90;;;;;;5136110;27;20039;-89
2022/09/20 01:41:03;;;;;;;11.75;1.60;;;9.90;99.90;;;;;;5135901;27;20041;-89
2022/09/20 01:43:44;;;;;;;6.13;1.30;;;9.90;99.90;;;;;;5135930;27;20046;-89
2022/09/20 01:46:18;;;;;;;11.18;1.48;;;9.90;99.90;;;;;;5119039;27;20519;-89
2022/09/20 01:48:43;;;;;;;12.98;1.88;;;9.90;99.90;;;;;;5118783;27;20095;-89
2022/09/20 01:51:50;;;;;;;11.75;1.67;;;9.90;99.90;;;;;;5135410;27;20038;-89
2022/09/20 01:54:25;;;;;;;7.43;1.33;;;9.90;99.90;;;;;;5135953;27;20046;-89
2022/09/20 01:57:18;;;;;;;11.63;1.58;;;9.90;99.90;;;;;;5135348;27;20074;-89
2022/09/20 02:00:08;;;;;;;10.32;1.50;;;9.80;99.90;;;;;;5135743;27;20043;-89
2022/09/20 02:03:04;;;;;;;9.52;1.63;;;9.70;99.90;;;;;;5135551;27;20389;-89
2022/09/20 02:05:46;;;;;;;5.25;1.35;;;9.70;99.90;;;;;;5135374;27;20372;-88
2022/09/20 02:08:49;;;;;;;9.23;1.63;;;9.60;99.90;;;;;;5135405;27;20476;-89
2022/09/20 02:11:18;;;;;;;10.05;1.20;;;9.60;99.90;;;;;;5135110;27;20279;-90
2022/09/20 02:13:49;;;;;;;11.00;2.38;;;9.60;99.90;;;;;;5135781;27;20176;-91
2022/09/20 02:16:43;;;;;;;6.45;1.63;;;9.60;99.90;;;;;;5135324;27;20062;-91
2022/09/20 02:19:27;;;;;;;9.90;1.40;;;9.70;99.90;;;;;;5135393;27;20046;-88
2022/09/20 02:22:11;;;;;;;8.05;1.60;;;9.70;99.90;;;;;;5135125;27;20046;-89
2022/09/20 02:25:12;;;;;;;7.97;2.45;;;9.70;99.90;;;;;;5135333;27;20526;-88
2022/09/20 02:28:07;;;;;;;5.35;1.35;;;9.70;99.90;;;;;;5032652;28;20049;-88
2022/09/20 02:31:04;;;;;;;13.15;1.67;;;9.70;99.90;;;;;;5117360;27;20078;-88
2022/09/20 02:33:51;;;;;;;7.20;1.35;;;9.70;99.90;;;;;;5117829;27;20030;-88
2022/09/20 02:36:28;;;;;;;6.90;1.40;;;9.80;99.90;;;;;;5134459;27;20038;-88
2022/09/20 02:39:15;;;;;;;8.77;1.40;;;9.70;99.90;;;;;;5117873;27;20126;-88
2022/09/20 02:42:14;;;;;;;7.45;1.80;;;9.80;99.90;;;;;;5134329;27;20113;-88
2022/09/20 02:44:49;;;;;;;8.73;1.30;;;9.80;99.90;;;;;;5032947;28;20076;-88
2022/09/20 02:47:38;;;;;;;7.93;1.60;;;9.80;99.90;;;;;;5015954;28;20077;-89
2022/09/20 02:50:41;;;;;;;9.18;1.50;;;9.80;99.90;;;;;;5032561;28;20041;-89
2022/09/20 02:53:06;;;;;;;6.68;1.30;;;9.80;99.90;;;;;;5032213;28;20036;-88
2022/09/20 02:55:45;;;;;;;7.22;1.13;;;9.70;99.90;;;;;;5032526;28;20407;-88
2022/09/20 02:58:40;;;;;;;7.15;1.20;;;9.70;99.90;;;;;;5015914;28;20044;-88
2022/09/20 03:01:23;;;;;;;10.27;2.38;;;9.70;99.90;;;;;;5032467;28;20044;-88
2022/09/20 03:04:13;;;;;;;5.80;1.23;;;9.70;99.90;;;;;;5032118;28;20155;-88
2022/09/20 03:06:49;;;;;;;9.75;1.45;;;9.70;99.90;;;;;;5032337;28;20495;-89
2022/09/20 03:09:46;;;;;;;9.60;2.42;;;9.70;99.90;;;;;;5032608;28;20497;-88
2022/09/20 03:12:53;;;;;;;4.53;1.27;;;9.60;99.90;;;;;;5031800;28;20072;-88
2022/09/20 03:15:33;;;;;;;5.55;1.15;;;9.60;99.90;;;;;;5032537;28;20049;-88
2022/09/20 03:18:16;;;;;;;5.30;1.02;;;9.60;99.90;;;;;;5015651;28;20430;-89
2022/09/20 03:21:21;;;;;;;5.35;2.17;;;9.60;99.90;;;;;;5069044;27;20061;-88
2022/09/20 03:24:15;;;;;;;9.27;1.75;;;9.50;99.90;;;;;;5117767;27;20054;-89
2022/09/20 03:27:06;;;;;;;6.03;1.17;;;9.50;99.90;;;;;;5117397;27;20085;-89
2022/09/20 03:29:55;;;;;;;6.05;1.42;;;9.50;99.90;;;;;;5117842;27;20077;-88
2022/09/20 03:32:35;;;;;;;7.65;1.52;;;9.50;99.90;;;;;;5116801;27;20039;-88
2022/09/20 03:35:16;;;;;;;8.55;1.40;;;9.50;99.90;;;;;;5117403;27;20644;-88
2022/09/20 03:37:47;;;;;;;6.28;1.13;;;9.50;99.90;;;;;;5134300;27;20042;-88
2022/09/20 03:40:28;;;;;;;6.97;1.17;;;9.50;99.90;;;;;;5134328;27;20039;-88
2022/09/20 03:43:14;;;;;;;10.77;2.08;;;9.50;99.90;;;;;;5134457;27;20131;-88
2022/09/20 03:46:03;;;;;;;3.13;0.80;;;9.50;99.90;;;;;;5134442;27;20091;-89
2022/09/20 03:48:40;;;;;;;5.85;1.27;;;9.50;99.90;;;;;;5124473;27;20058;-87
2022/09/20 03:51:27;;;;;;;6.28;1.20;;;9.50;99.90;;;;;;5138325;27;20469;-88
2022/09/20 03:54:09;;;;;;;7.28;1.00;;;9.50;99.90;;;;;;5138261;27;20038;-88
2022/09/20 03:56:53;;;;;;;7.82;1.50;;;9.50;99.90;;;;;;5137849;27;20034;-88
2022/09/20 03:59:32;;;;;;;7.57;1.52;;;9.50;99.90;;;;;;5137790;27;20042;-88
2022/09/20 04:02:08;;;;;;;11.68;2.00;;;9.50;99.90;;;;;;5137848;27;20046;-87
2022/09/20 04:04:53;;;;;;;9.07;2.22;;;9.50;99.90;;;;;;5120845;27;20039;-88
2022/09/20 04:07:39;;;;;;;4.55;1.30;;;9.40;99.90;;;;;;5137820;27;20035;-89
2022/09/20 04:10:29;;;;;;;6.38;1.45;;;9.40;99.90;;;;;;5119779;27;20069;-88
2022/09/20 04:13:25;;;;;;;9.00;1.33;;;9.40;99.90;;;;;;5137483;27;20057;-88
2022/09/20 04:16:06;;;;;;;7.63;1.10;;;9.40;99.90;;;;;;5120701;27;20045;-89
2022/09/20 04:18:39;;;;;;;6.20;1.25;;;9.40;99.90;;;;;;5137436;27;20042;-88
2022/09/20 04:21:12;;;;;;;7.55;1.40;;;9.40;99.90;;;;;;5120273;27;20043;-88
2022/09/20 04:23:54;;;;;;;11.80;1.60;;;9.40;99.90;;;;;;5137670;27;20039;-89
2022/09/20 04:26:25;;;;;;;4.75;1.30;;;9.40;99.90;;;;;;5137848;27;20380;-89
2022/09/20 04:29:11;;;;;;;7.05;1.38;;;9.30;99.90;;;;;;5137218;27;20039;-89
2022/09/20 04:32:03;;;;;;;9.63;1.75;;;9.30;99.90;;;;;;5119760;27;20076;-88
2022/09/20 04:37:31;;;;;;;4.85;1.00;;;9.30;99.90;;;;;;5137367;27;20046;-89
2022/09/20 04:40:35;;;;;;;7.20;1.50;;;9.40;99.90;;;;;;5119673;27;20085;-88
2022/09/20 04:43:12;;;;;;;9.23;1.70;;;9.40;99.90;;;;;;5137365;27;20041;-88
2022/09/20 04:46:26;;;;;;;5.95;1.33;;;9.40;99.90;;;;;;5133871;27;20486;-88
2022/09/20 04:48:55;;;;;;;;;;;9.40;99.90;;;;;;5044072;27;20050;-88
2022/09/20 04:51:42;;;;;;;13.98;2.00;;;9.40;99.90;;;;;;5119814;27;19914;-89
2022/09/20 04:54:40;;;;;;;10.05;1.48;;;9.40;99.90;;;;;;5119677;27;20054;-88
2022/09/20 04:57:40;;;;;;;10.10;1.75;;;9.40;99.90;;;;;;5136905;27;20049;-89
2022/09/20 05:00:15;;;;;;;9.70;1.95;;;9.40;99.90;;;;;;5136467;27;20031;-89
2022/09/20 05:02:56;;;;;;;5.57;1.70;;;9.50;99.90;;;;;;5135644;27;20483;-89
2022/09/20 05:06:14;;;;;;;9.15;1.80;;;9.50;99.90;;;;;;5119720;27;20045;-88
2022/09/20 05:09:18;;;;;;;8.95;1.67;;;9.40;99.90;;;;;;5053787;28;20498;-88
2022/09/20 05:11:55;;;;;;;10.00;1.67;;;9.40;99.90;;;;;;5050285;28;20084;-88
2022/09/20 05:14:50;;;;;;;7.40;1.63;;;9.40;99.90;;;;;;5054240;28;20088;-88
2022/09/20 05:17:18;;;;;;;6.00;1.45;;;9.50;99.90;;;;;;5053804;28;20585;-88
2022/09/20 05:20:02;;;;;;;9.10;1.80;;;9.50;99.90;;;;;;5053901;28;20045;-87
2022/09/20 05:22:44;;;;;;;;;;;9.50;99.90;;;;;;5054012;28;20037;-88
2022/09/20 05:25:29;;;;;;;5.20;1.27;;;9.50;99.90;;;;;;5070544;28;20647;-88
2022/09/20 05:28:06;;;;;;;6.80;1.42;;;9.50;99.90;;;;;;5053298;28;20071;-88
2022/09/20 05:31:04;;;;;;;8.25;1.80;;;9.60;99.90;;;;;;5053224;28;20044;-88
2022/09/20 05:33:52;;;;;;;7.28;1.63;;;9.60;99.90;;;;;;5053748;28;20048;-89
2022/09/20 05:36:48;;;;;;;8.30;1.40;;;9.70;99.90;;;;;;5037264;28;20036;-89
2022/09/20 05:39:28;;;;;;;6.03;1.38;;;9.70;99.90;;;;;;5079649;27;20046;-89
2022/09/20 05:42:05;;;;;;;5.55;1.55;;;9.70;99.90;;;;;;5098533;27;20155;-89
2022/09/20 05:44:54;;;;;;;10.95;2.08;;;9.70;99.90;;;;;;5098599;27;20031;-89
2022/09/20 05:47:46;;;;;;;6.93;2.40;;;9.80;99.90;;;;;;5117604;27;20034;-89
2022/09/20 05:50:33;;;;;;;5.85;1.52;;;9.80;99.90;;;;;;5132730;27;20083;-89
2022/09/20 05:53:01;;;;;;;6.28;1.30;;;9.90;99.90;;;;;;5097544;27;20039;-89
2022/09/20 05:55:51;;;;;;;6.90;1.58;;;9.90;99.90;;;;;;5111850;27;20042;-89
2022/09/20 05:58:44;;;;;;;8.23;1.52;;;9.90;99.90;;;;;;5115353;27;20465;-89
2022/09/20 06:01:29;;;;;;;9.07;1.67;;;9.90;99.90;;;;;;5097509;27;20097;-89
2022/09/20 06:04:07;;;;;;;6.18;1.50;;;9.90;99.90;;;;;;5115195;27;20074;-90
2022/09/20 06:07:11;;;;;;;8.32;1.52;;;10.00;99.90;;;;;;5106071;27;20044;-89
2022/09/20 06:10:19;;;;;;;9.98;1.65;;;10.00;99.90;;;;;;5114180;28;20110;-89
2022/09/20 06:12:57;;;;;;;7.00;1.48;;;10.00;99.90;;;;;;5114744;27;20035;-89
2022/09/20 06:15:44;;;;;;;6.00;1.35;;;10.00;99.90;;;;;;5114744;27;20039;-89
2022/09/20 06:18:15;;;;;;;6.88;1.55;;;10.10;99.90;;;;;;5114807;27;20500;-89
2022/09/20 06:21:02;;;;;;;5.47;1.33;;;10.20;99.90;;;;;;5114795;27;20035;-89
2022/09/20 06:23:30;;;;;;;5.03;1.60;;;10.20;99.90;;;;;;5114327;27;20047;-89
2022/09/20 06:26:00;;;;;;;7.10;1.95;;;10.20;99.90;;;;;;5115056;27;20050;-90
2022/09/20 06:28:33;;;;;;;7.70;1.35;;;10.30;99.90;;;;;;5114581;27;20155;-89
2022/09/20 06:30:59;;;;;;;7.13;1.35;;;10.40;99.90;;;;;;5114192;27;20564;-89
2022/09/20 06:33:27;;;;;;;9.77;1.80;;;10.50;99.90;;;;;;5114536;27;20043;-90
2022/09/20 06:42:09;;;;;;;5.97;1.27;;;10.70;99.90;;;;;;5114180;27;20078;-89
2022/09/20 06:44:40;;;;;;;7.95;1.65;;;10.70;99.90;;;;;;5114210;27;20051;-89
2022/09/20 06:47:09;;;;;;;5.68;1.52;;;10.70;99.90;;;;;;5114135;27;20043;-89
2022/09/20 06:49:35;;;;;;;4.70;1.17;;;10.80;99.90;;;;;;5114598;27;20554;-89
2022/09/20 06:52:05;;;;;;;2.40;1.10;;;10.80;99.90;;;;;;5114012;28;20034;-89
2022/09/20 06:54:32;;;;;;;7.18;2.05;;;10.90;99.90;;;;;;5114652;27;20082;-89
2022/09/20 06:57:01;;;;;;;6.20;1.10;;;10.90;99.90;;;;;;5114447;27;20043;-89
2022/09/20 06:59:27;;;;;;;4.30;1.20;;;11.00;99.90;;;;;;5096745;28;20070;-90
2022/09/20 07:01:52;;;;;;;9.75;1.70;;;11.00;99.90;;;;;;5113974;28;20077;-89
2022/09/20 07:04:18;;;;;;;5.25;1.55;;;11.00;99.90;;;;;;5114539;28;20092;-89
2022/09/20 07:06:44;;;;;;;5.63;1.27;;;11.10;99.90;;;;;;5113744;28;20065;-89
2022/09/20 07:09:10;;;;;;;6.90;1.42;;;11.10;99.90;;;;;;5114486;28;20032;-89
2022/09/20 07:11:36;;;;;;;7.18;1.88;;;11.20;99.90;;;;;;5113879;28;20039;-89
2022/09/20 07:14:01;;;;;;;9.18;1.58;;;11.20;99.90;;;;;;5097324;28;20118;-89
2022/09/20 07:16:28;;;;;;;7.65;1.48;;;11.20;99.90;;;;;;5111899;28;20552;-88
2022/09/20 07:18:53;;;;;;;7.40;1.55;;;11.30;99.90;;;;;;5110980;28;20031;-89
2022/09/20 07:21:20;;;;;;;5.45;1.50;;;11.30;99.90;;;;;;5111177;27;20047;-88
2022/09/20 07:23:47;;;;;;;6.68;1.38;;;11.30;99.90;;;;;;5115196;27;20082;-89
2022/09/20 07:26:27;;;;;;;6.13;1.23;;;11.40;99.90;;;;;;5098302;27;20039;-89
2022/09/20 07:28:54;;;;;;;6.07;1.42;;;11.40;99.90;;;;;;5132462;27;20035;-89
2022/09/20 07:31:21;;;;;;;9.48;1.48;;;11.40;99.90;;;;;;5114820;27;20050;-89
2022/09/20 07:33:47;;;;;;;8.27;1.60;;;11.50;99.90;;;;;;5115420;27;20400;-89
2022/09/20 07:36:13;;;;;;;6.70;1.63;;;11.50;99.90;;;;;;5115754;27;20039;-89
2022/09/20 07:38:40;;;;;;;4.68;1.25;;;11.60;99.90;;;;;;5100789;27;20039;-89
2022/09/20 07:41:07;;;;;;;7.28;1.98;;;11.60;99.90;;;;;;5117592;27;20047;-90
2022/09/20 07:43:33;;;;;;;7.28;1.60;;;11.60;99.90;;;;;;5117951;27;20035;-90
2022/09/20 07:45:59;;;;;;;9.25;1.48;;;11.60;99.90;;;;;;5117577;27;20046;-89
2022/09/20 07:48:33;;;;;;;11.25;2.15;;;11.70;99.90;;;;;;5117460;27;20047;-90
2022/09/20 07:51:07;;;;;;;6.45;1.67;;;11.80;99.90;;;;;;5117800;27;20490;-89
2022/09/20 07:53:33;;;;;;;10.10;2.00;;;11.90;99.90;;;;;;5117561;27;20122;-90
2022/09/20 07:56:02;;;;;;;6.57;1.70;;;12.00;99.90;;;;;;5117695;27;20119;-88
2022/09/20 07:58:32;;;;;;;5.80;1.52;;;12.00;99.90;;;;;;5100482;27;20484;-89
2022/09/20 08:01:00;;;;;;;9.35;1.92;;;12.10;99.90;;;;;;5117246;27;20118;-90
2022/09/20 08:03:27;;;;;;;7.47;1.90;;;12.20;99.90;;;;;;5117699;27;20039;-89
2022/09/20 08:06:02;;;;;;;7.68;2.20;;;12.30;99.90;;;;;;5117209;27;20043;-89
2022/09/20 08:08:31;;;;;;;5.95;1.73;;;12.50;99.90;;;;;;5117321;27;20054;-90
2022/09/20 08:11:09;;;;;;;5.28;1.73;;;12.50;99.90;;;;;;5099991;27;20045;-89
2022/09/20 08:13:39;;;;;;;11.70;2.50;;;12.60;99.90;;;;;;5117069;27;20047;-89
2022/09/20 08:16:09;;;;;;;11.15;2.25;;;12.80;99.90;;;;;;5117415;27;20585;-89
2022/09/20 08:18:35;;;;;;;10.32;1.77;;;12.90;99.90;;;;;;5117207;27;20071;-89
2022/09/20 08:21:09;;;;;;;6.57;1.38;;;13.00;99.90;;;;;;5116633;27;20121;-89
2022/09/20 08:23:39;;;;;;;7.35;1.60;;;13.00;99.90;;;;;;5117191;27;20047;-90
2022/09/20 08:26:07;;;;;;;8.70;1.40;;;13.10;99.90;;;;;;5135694;27;20046;-89
2022/09/20 08:28:34;;;;;;;7.03;1.35;;;13.20;99.90;;;;;;5116592;27;20039;-89
2022/09/20 08:31:06;;;;;;;7.78;1.35;;;13.20;99.90;;;;;;5116701;27;20035;-90
2022/09/20 08:33:32;;;;;;;8.93;2.10;;;13.30;99.90;;;;;;5124155;27;20045;-89
2022/09/20 08:35:59;;;;;;;6.35;1.42;;;13.40;99.90;;;;;;5137112;27;20041;-89
2022/09/20 08:38:26;;;;;;;7.72;2.08;;;13.40;99.90;;;;;;5120172;27;20042;-89
2022/09/20 08:41:06;;;;;;;9.45;2.22;;;13.50;99.90;;;;;;5137036;27;20049;-89
2022/09/20 08:43:43;;;;;;;8.35;1.90;;;13.60;99.90;;;;;;5119970;27;20623;-89
2022/09/20 08:46:15;;;;;;;9.07;1.95;;;13.60;99.90;;;;;;5137109;27;20483;-90
2022/09/20 08:48:41;;;;;;;10.55;2.80;;;13.70;99.90;;;;;;5137108;27;20484;-89
2022/09/20 08:51:14;;;;;;;7.53;1.75;;;13.80;99.90;;;;;;5136484;27;20034;-90
2022/09/20 08:53:46;;;;;;;8.13;2.47;;;13.80;99.90;;;;;;5120294;27;20062;-89
2022/09/20 08:56:11;;;;;;;10.75;2.35;;;13.80;99.90;;;;;;5137113;27;20037;-90
2022/09/20 08:58:38;;;;;;;6.85;1.60;;;13.90;99.90;;;;;;5136330;27;20122;-89
2022/09/20 09:01:05;;;;;;;6.05;1.33;;;14.00;99.90;;;;;;5119367;27;20050;-89
2022/09/20 09:03:32;;;;;;;6.18;1.45;;;14.10;99.90;;;;;;5137025;27;20046;-90
2022/09/20 09:06:00;;;;;;;6.95;1.60;;;14.10;99.90;;;;;;5136631;27;20495;-90
2022/09/20 09:08:29;;;;;;;9.85;3.72;;;14.20;99.90;;;;;;5136683;27;20513;-90
2022/09/20 09:11:08;;;;;;;6.75;1.40;;;14.30;99.90;;;;;;5119209;27;20121;-89
2022/09/20 09:13:53;;;;;;;7.18;1.35;;;14.40;99.90;;;;;;5136677;27;20049;-89
2022/09/20 09:16:22;;;;;;;7.95;1.33;;;14.50;99.90;;;;;;5136947;27;20035;-89
2022/09/20 09:18:49;;;;;;;9.15;1.38;;;14.50;99.90;;;;;;5119387;27;20502;-89
2022/09/20 09:21:22;;;;;;;8.13;1.55;;;14.50;99.90;;;;;;5135882;27;20050;-90
2022/09/20 09:24:00;;;;;;;5.93;1.30;;;14.60;99.90;;;;;;5136498;27;20034;-90
2022/09/20 09:26:27;;;;;;;7.78;2.17;;;14.70;99.90;;;;;;5117188;27;20129;-89
2022/09/20 09:29:19;;;;;;;5.10;1.08;;;14.70;99.90;;;;;;5115611;27;20068;-89
2022/09/20 09:31:47;;;;;;;8.88;2.40;;;14.90;99.90;;;;;;5133869;27;20049;-90
2022/09/20 09:34:24;;;;;;;8.52;1.50;;;14.90;99.90;;;;;;5119506;27;20042;-89
2022/09/20 09:36:50;;;;;;;5.03;1.10;;;15.00;99.90;;;;;;5118663;27;20034;-90
2022/09/20 09:39:22;;;;;;;7.18;1.50;;;15.00;99.90;;;;;;5136180;27;20035;-90
2022/09/20 09:41:48;;;;;;;5.32;0.90;;;15.20;99.90;;;;;;5135853;27;20538;-89
2022/09/20 09:44:26;;;;;;;5.95;1.10;;;15.20;99.90;;;;;;5135470;27;20035;-90
2022/09/20 09:46:53;;;;;;;6.50;1.48;;;15.20;99.90;;;;;;5135899;27;20048;-89
2022/09/20 09:49:20;;;;;;;6.38;1.30;;;15.30;99.90;;;;;;5136301;27;20060;-89
2022/09/20 09:52:09;;;;;;;7.20;1.52;;;15.20;99.90;;;;;;5135397;27;20042;-90
2022/09/20 09:54:47;;;;;;;6.80;0.88;;;15.30;99.90;;;;;;5118967;27;20042;-90
2022/09/20 09:57:44;;;;;;;7.85;1.60;;;15.20;99.90;;;;;;5135635;27;20053;-90
2022/09/20 10:00:13;;;;;;;6.47;1.27;;;15.30;99.90;;;;;;5135554;27;20121;-90
2022/09/20 10:03:12;;;;;;;4.78;1.15;;;15.20;99.90;;;;;;5135370;27;20457;-89
2022/09/20 10:06:05;;;;;;;6.53;1.25;;;15.30;99.90;;;;;;5118320;27;20074;-90
2022/09/20 10:08:40;;;;;;;8.02;1.35;;;15.30;99.90;;;;;;5135491;27;20043;-90
2022/09/20 10:11:16;;;;;;;7.05;1.55;;;15.50;99.90;;;;;;5135590;27;20030;-89
2022/09/20 10:14:18;;;;;;;7.50;1.50;;;15.60;99.90;;;;;;5135285;27;20077;-90
2022/09/20 10:17:09;;;;;;;6.33;1.40;;;15.70;99.90;;;;;;5135649;27;20488;-89
2022/09/20 10:19:55;;;;;;;7.72;1.17;;;15.70;99.90;;;;;;5135334;27;20042;-90
2022/09/20 10:22:55;;;;;;;7.38;1.27;;;15.80;99.90;;;;;;5135139;27;20034;-90
2022/09/20 10:25:24;;;;;;;8.05;1.70;;;16.00;99.90;;;;;;5118185;27;20034;-90
2022/09/20 10:28:26;;;;;;;6.97;1.20;;;16.10;99.90;;;;;;5134810;27;20039;-89
2022/09/20 10:31:17;;;;;;;7.35;1.13;;;16.20;99.90;;;;;;5135135;27;20073;-89
2022/09/20 10:34:06;;;;;;;8.68;1.33;;;16.30;99.90;;;;;;5135426;27;20034;-89
2022/09/20 10:36:52;;;;;;;7.80;1.38;;;16.50;99.90;;;;;;5118086;27;20046;-90
2022/09/20 10:39:35;;;;;;;6.55;1.25;;;16.50;99.90;;;;;;5135390;27;20074;-89
2022/09/20 10:45:18;;;;;;;6.60;1.38;;;16.60;99.90;;;;;;5135007;27;20367;-89
2022/09/20 10:47:50;;;;;;;6.78;1.30;;;16.80;99.90;;;;;;5134903;27;20035;-89
2022/09/20 10:50:44;;;;;;;9.18;1.48;;;17.10;99.90;;;;;;5117473;27;20038;-90
2022/09/20 10:53:34;;;;;;;7.00;1.20;;;17.20;99.90;;;;;;5134781;27;20038;-90
2022/09/20 10:56:14;;;;;;;7.45;1.52;;;17.30;99.90;;;;;;5134350;27;20507;-90
2022/09/20 10:59:01;;;;;;;7.07;1.70;;;17.30;99.90;;;;;;5117847;27;20391;-90
2022/09/20 11:01:33;;;;;;;8.55;2.03;;;17.30;99.90;;;;;;5117543;27;20082;-89
2022/09/20 11:04:20;;;;;;;7.95;1.70;;;17.30;99.90;;;;;;5134884;27;20042;-90
2022/09/20 11:07:06;;;;;;;5.65;1.17;;;17.20;99.90;;;;;;5134744;27;20403;-90
2022/09/20 11:09:42;;;;;;;5.80;1.13;;;17.10;99.90;;;;;;5134884;27;20045;-90
2022/09/20 11:12:42;;;;;;;6.53;1.35;;;17.00;99.90;;;;;;5117076;27;20031;-90
2022/09/20 11:15:21;;;;;;;5.43;1.00;;;16.90;99.90;;;;;;5135029;27;20426;-90
2022/09/20 11:17:59;;;;;;;6.38;1.00;;;16.80;99.90;;;;;;5117534;27;20035;-89
2022/09/20 11:20:43;;;;;;;8.40;2.13;;;16.80;99.90;;;;;;5134475;27;20045;-89
2022/09/20 11:23:20;;;;;;;6.55;1.20;;;16.70;99.90;;;;;;5117629;27;20057;-90
2022/09/20 11:25:51;;;;;;;7.18;0.88;;;16.80;99.90;;;;;;5117215;27;20042;-90
2022/09/20 11:28:40;;;;;;;7.95;1.30;;;16.80;99.90;;;;;;5134578;27;20042;-90
2022/09/20 11:31:23;;;;;;;4.68;1.05;;;16.80;99.90;;;;;;5117060;27;20070;-89
2022/09/20 11:34:07;;;;;;;5.40;1.15;;;16.80;99.90;;;;;;5134453;27;20079;-89
2022/09/20 11:36:41;;;;;;;7.20;1.17;;;16.70;99.90;;;;;;5134507;27;20043;-89
2022/09/20 11:39:19;;;;;;;5.57;1.05;;;16.70;99.90;;;;;;5134590;27;20534;-89
2022/09/20 11:41:46;;;;;;;5.55;1.35;;;16.60;99.90;;;;;;5116629;27;20050;-89
2022/09/20 11:44:15;;;;;;;3.42;0.75;;;16.60;99.90;;;;;;5134392;27;20070;-89
2022/09/20 11:47:10;;;;;;;6.18;1.13;;;16.50;99.90;;;;;;5117220;27;20043;-89
2022/09/20 11:49:35;;;;;;;6.93;1.10;;;16.60;99.90;;;;;;5124663;27;20058;-89
2022/09/20 11:52:42;;;;;;;6.47;1.13;;;16.60;99.90;;;;;;5117215;27;20039;-88
2022/09/20 11:55:40;;;;;;;5.72;1.05;;;16.80;99.90;;;;;;5086873;27;20046;-90
2022/09/20 11:58:10;;;;;;;5.55;0.80;;;16.70;99.90;;;;;;5134158;27;20164;-89
2022/09/20 12:00:40;;;;;;;6.65;1.20;;;16.80;99.90;;;;;;5134298;27;20070;-89
2022/09/20 12:03:20;;;;;;;5.82;1.27;;;16.90;99.90;;;;;;5134066;27;20407;-89
2022/09/20 12:05:46;;;;;;;5.43;1.00;;;16.90;99.90;;;;;;5117388;27;20478;-89
2022/09/20 12:08:31;;;;;;;4.72;0.95;;;16.90;99.90;;;;;;5118969;27;20042;-89
2022/09/20 12:11:03;;;;;;;5.05;1.17;;;16.90;99.90;;;;;;5137249;27;20058;-90
2022/09/20 12:13:31;;;;;;;5.30;1.02;;;16.90;99.90;;;;;;5137970;27;20487;-89
2022/09/20 12:16:34;;;;;;;6.07;1.33;;;17.00;99.90;;;;;;5120647;27;20114;-90
2022/09/20 12:19:07;;;;;;;7.40;1.40;;;17.00;99.90;;;;;;5137596;27;20039;-89
2022/09/20 12:21:57;;;;;;;7.35;1.52;;;17.10;99.90;;;;;;5137444;27;20034;-89
2022/09/20 12:24:34;;;;;;;6.75;1.10;;;17.20;99.90;;;;;;5124521;27;20051;-90
2022/09/20 12:27:05;;;;;;;8.30;1.35;;;17.20;99.90;;;;;;5116633;27;20515;-89
2022/09/20 12:29:31;;;;;;;5.03;1.17;;;17.20;99.90;;;;;;5105307;27;20059;-89
2022/09/20 12:32:01;;;;;;;7.38;1.25;;;17.40;99.90;;;;;;5126224;27;20042;-89
2022/09/20 12:34:35;;;;;;;5.25;1.13;;;17.40;99.90;;;;;;5125506;27;20071;-89
2022/09/20 12:37:03;;;;;;;6.93;1.45;;;17.60;99.90;;;;;;5126350;27;20031;-89
2022/09/20 12:39:34;;;;;;;8.02;1.30;;;17.60;99.90;;;;;;5117102;27;20058;-89
2022/09/20 12:42:01;;;;;;;7.18;1.20;;;17.60;99.90;;;;;;5119573;27;20039;-90
2022/09/20 12:44:44;;;;;;;6.82;1.35;;;17.70;99.90;;;;;;5137273;27;20046;-89
2022/09/20 12:47:09;;;;;;;6.65;1.20;;;17.90;99.90;;;;;;5137099;27;20499;-89
2022/09/20 12:52:49;;;;;;;6.03;1.10;;;18.20;99.90;;;;;;5133764;27;20129;-89
2022/09/20 12:56:03;;;;;;;6.85;1.48;;;18.30;99.90;;;;;;5133601;27;20053;-90
2022/09/20 12:58:31;;;;;;;;;;;18.20;99.90;;;;;;5116508;27;20207;-89
2022/09/20 13:01:03;;;;;;;6.43;1.20;;;18.10;99.90;;;;;;5133213;27;19915;-89
2022/09/20 13:03:34;;;;;;;5.63;1.30;;;18.10;99.90;;;;;;5133495;27;20043;-89
2022/09/20 13:06:05;;;;;;;7.03;1.42;;;18.10;99.90;;;;;;5137245;27;20043;-89
2022/09/20 13:08:40;;;;;;;7.57;1.30;;;18.20;99.90;;;;;;5119699;27;20096;-89
2022/09/20 13:11:05;;;;;;;10.40;2.88;;;18.20;99.90;;;;;;5136474;27;20034;-89
2022/09/20 13:14:05;;;;;;;7.97;2.60;;;18.10;99.90;;;;;;5136709;27;20061;-89
2022/09/20 13:16:56;;;;;;;8.63;1.40;;;18.10;99.90;;;;;;5136717;27;20042;-89
2022/09/20 13:19:30;;;;;;;7.43;1.50;;;18.00;99.70;;;;;;5118877;27;20070;-89
2022/09/20 13:22:16;;;;;;;8.07;1.20;;;17.90;99.20;;;;;;5122348;27;20046;-89
2022/09/20 13:24:45;;;;;;;8.43;1.35;;;17.90;98.40;;;;;;5108317;27;20035;-89
2022/09/20 13:27:24;;;;;;;5.43;1.17;;;17.80;97.70;;;;;;5107528;27;20053;-89
2022/09/20 13:29:50;;;;;;;6.80;1.40;;;17.80;97.50;;;;;;5123793;27;20035;-89
2022/09/20 13:32:25;;;;;;;6.60;1.00;;;17.70;96.60;;;;;;5115024;27;20057;-89
2022/09/20 13:35:17;;;;;;;6.20;1.30;;;17.70;96.40;;;;;;5119178;27;20035;-89
2022/09/20 13:37:49;;;;;;;6.78;1.48;;;17.60;95.70;;;;;;5136499;27;20042;-88
2022/09/20 13:40:39;;;;;;;6.82;1.20;;;17.60;96.10;;;;;;5118847;27;20523;-89
2022/09/20 13:43:28;;;;;;;8.02;1.30;;;17.60;96.30;;;;;;5136320;27;20545;-89
2022/09/20 13:45:59;;;;;;;7.55;1.17;;;17.60;96.70;;;;;;5136392;27;20105;-89
2022/09/20 13:48:26;;;;;;;7.00;1.38;;;17.70;96.00;;;;;;5118487;27;20092;-90
2022/09/20 13:50:52;;;;;;;6.10;1.35;;;17.70;95.40;;;;;;5135856;27;20030;-89
2022/09/20 13:53:18;;;;;;;5.95;1.05;;;18.00;97.00;;;;;;5136060;27;20057;-89
2022/09/20 13:55:45;;;;;;;7.13;1.30;;;18.40;95.30;;;;;;5135718;27;20507;-90
2022/09/20 13:58:47;;;;;;;7.53;1.33;;;18.60;94.30;;;;;;5118526;27;20176;-89
2022/09/20 14:01:34;;;;;;;5.88;1.15;;;18.80;93.40;;;;;;5006084;28;20037;-89